createdAt,value
2017-08-31T00:02:00.754Z,5.43
2017-08-31T00:04:35.401Z,5.97
2017-08-31T00:07:09.931Z,5.30
2017-08-31T00:09:44.528Z,5.63
2017-08-31T00:12:19.176Z,5.03
2017-08-31T00:14:53.594Z,6.03
2017-08-31T00:17:28.171Z,6.07
2017-08-31T00:20:02.553Z,5.80
2017-08-31T00:22:37.047Z,5.70
2017-08-31T00:25:11.610Z,4.87
2017-08-31T00:27:45.993Z,6.17
2017-08-31T00:30:20.672Z,5.87
2017-08-31T00:32:55.353Z,6.50
2017-08-31T00:35:29.888Z,5.57
2017-08-31T00:38:04.342Z,6.00
2017-08-31T00:40:38.890Z,5.33
2017-08-31T00:43:13.490Z,6.77
2017-08-31T00:45:48.109Z,5.87
2017-08-31T00:48:22.188Z,5.20
2017-08-31T00:50:56.165Z,5.93
2017-08-31T00:53:29.952Z,6.60
2017-08-31T00:56:04.525Z,5.00
2017-08-31T00:58:38.965Z,5.50
2017-08-31T01:01:13.528Z,5.10
2017-08-31T01:03:48.313Z,6.50
2017-08-31T01:06:22.846Z,6.50
2017-08-31T01:08:57.438Z,5.80
2017-08-31T01:11:31.989Z,6.43
2017-08-31T01:14:06.473Z,5.43
2017-08-31T01:16:41.106Z,5.57
2017-08-31T01:19:15.287Z,6.17
2017-08-31T01:21:49.229Z,5.70
2017-08-31T01:24:23.734Z,5.30
2017-08-31T01:26:57.591Z,5.70
2017-08-31T01:29:32.002Z,6.53
2017-08-31T01:32:06.205Z,6.00
2017-08-31T01:34:40.077Z,5.10
2017-08-31T01:37:14.543Z,6.10
2017-08-31T01:39:48.433Z,6.10
2017-08-31T01:42:22.774Z,5.67
2017-08-31T01:44:56.630Z,6.10
2017-08-31T01:47:42.368Z,5.90
2017-08-31T01:50:16.609Z,6.23
2017-08-31T01:52:50.470Z,5.60
2017-08-31T01:55:25.016Z,7.00
2017-08-31T01:57:59.493Z,6.40
2017-08-31T02:00:33.461Z,6.50
2017-08-31T02:03:07.878Z,5.50
2017-08-31T02:05:42.496Z,5.93
2017-08-31T02:08:17.029Z,5.27
2017-08-31T02:10:51.578Z,6.50
2017-08-31T02:13:26.142Z,5.63
2017-08-31T02:16:00.889Z,6.30
2017-08-31T02:18:35.519Z,6.50
2017-08-31T02:21:10.162Z,6.00
2017-08-31T02:23:44.750Z,6.80
2017-08-31T02:26:19.350Z,6.60
2017-08-31T02:28:53.789Z,8.73
2017-08-31T02:31:28.387Z,5.90
2017-08-31T02:34:02.853Z,6.90
2017-08-31T02:36:37.457Z,7.57
2017-08-31T02:39:12.224Z,7.20
2017-08-31T02:41:46.898Z,7.03
2017-08-31T02:44:21.451Z,5.90
2017-08-31T02:46:56.215Z,6.50
2017-08-31T02:49:30.714Z,5.40
2017-08-31T02:52:05.285Z,6.47
2017-08-31T02:54:39.979Z,7.27
2017-08-31T02:57:14.449Z,7.13
2017-08-31T02:59:49.069Z,6.93
2017-08-31T03:02:23.687Z,7.03
2017-08-31T03:04:58.392Z,6.27
2017-08-31T03:07:33.049Z,7.03
2017-08-31T03:10:13.870Z,6.57
2017-08-31T03:12:48.510Z,6.10
2017-08-31T03:15:23.022Z,8.23
2017-08-31T03:17:57.447Z,6.23
2017-08-31T03:20:32.089Z,6.77
2017-08-31T03:23:06.757Z,5.50
2017-08-31T03:25:41.313Z,7.40
2017-08-31T03:28:16.001Z,6.77
2017-08-31T03:30:50.575Z,6.67
2017-08-31T03:33:25.302Z,6.87
2017-08-31T03:35:59.807Z,6.70
2017-08-31T03:38:34.246Z,6.20
2017-08-31T03:41:08.818Z,6.77
2017-08-31T03:43:43.274Z,7.17
2017-08-31T03:46:17.833Z,6.80
2017-08-31T03:48:52.374Z,6.67
2017-08-31T03:51:27.101Z,5.80
2017-08-31T03:54:01.685Z,6.77
2017-08-31T03:56:36.254Z,6.33
2017-08-31T03:59:10.837Z,7.30
2017-08-31T04:01:45.381Z,6.33
2017-08-31T04:04:20.070Z,8.07
2017-08-31T04:06:54.670Z,7.93
2017-08-31T04:09:29.279Z,8.70
2017-08-31T04:12:03.834Z,7.50
2017-08-31T04:14:38.503Z,8.53
2017-08-31T04:17:12.982Z,8.20
2017-08-31T04:19:47.443Z,8.33
2017-08-31T04:22:22.106Z,8.63
2017-08-31T04:24:56.526Z,7.60
2017-08-31T04:27:31.122Z,9.33
2017-08-31T04:30:08.270Z,8.43
2017-08-31T04:32:42.810Z,9.50
2017-08-31T04:35:17.369Z,9.00
2017-08-31T04:37:52.261Z,7.80
2017-08-31T04:40:26.911Z,9.43
2017-08-31T04:43:01.402Z,9.70
2017-08-31T04:45:35.901Z,8.80
2017-08-31T04:48:10.326Z,9.43
2017-08-31T04:50:44.862Z,9.20
2017-08-31T04:53:19.433Z,9.03
2017-08-31T04:55:54.010Z,8.90
2017-08-31T04:58:28.717Z,8.90
2017-08-31T05:01:03.612Z,7.90
2017-08-31T05:03:38.066Z,8.20
2017-08-31T05:06:12.449Z,8.67
2017-08-31T05:08:46.950Z,9.63
2017-08-31T05:11:21.252Z,8.63
2017-08-31T05:13:55.733Z,8.23
2017-08-31T05:16:30.085Z,8.40
2017-08-31T05:19:04.342Z,10.20
2017-08-31T05:21:38.649Z,9.30
2017-08-31T05:24:12.930Z,9.07
2017-08-31T05:26:47.281Z,9.20
2017-08-31T05:29:21.731Z,9.00
2017-08-31T05:31:56.153Z,8.80
2017-08-31T05:34:30.418Z,8.97
2017-08-31T05:37:04.714Z,9.67
2017-08-31T05:39:39.153Z,8.17
2017-08-31T05:42:13.482Z,9.00
2017-08-31T05:44:47.814Z,8.40
2017-08-31T05:47:22.137Z,9.60
2017-08-31T05:49:56.442Z,8.03
2017-08-31T05:52:30.777Z,7.30
2017-08-31T05:55:08.729Z,8.67
2017-08-31T05:57:43.201Z,8.10
2017-08-31T06:00:17.665Z,8.43
2017-08-31T06:02:51.946Z,9.73
2017-08-31T06:05:26.298Z,9.80
2017-08-31T06:08:00.608Z,7.53
2017-08-31T06:10:35.006Z,7.13
2017-08-31T06:13:09.497Z,8.23
2017-08-31T06:15:43.867Z,7.90
2017-08-31T06:18:18.342Z,7.10
2017-08-31T06:20:52.923Z,7.63
2017-08-31T06:23:27.473Z,8.33
2017-08-31T06:26:01.950Z,7.57
2017-08-31T06:28:36.440Z,7.43
2017-08-31T06:31:10.932Z,8.10
2017-08-31T06:33:45.532Z,7.17
2017-08-31T06:36:20.082Z,8.40
2017-08-31T06:38:54.606Z,9.40
2017-08-31T06:41:29.159Z,8.77
2017-08-31T06:44:03.633Z,8.83
2017-08-31T06:46:38.053Z,8.40
2017-08-31T06:49:12.678Z,7.87
2017-08-31T06:51:47.289Z,7.13
2017-08-31T06:54:21.810Z,7.33
2017-08-31T06:56:56.366Z,8.20
2017-08-31T06:59:30.822Z,7.27
2017-08-31T07:02:05.386Z,7.60
2017-08-31T07:04:39.982Z,8.10
2017-08-31T07:07:14.734Z,6.97
2017-08-31T07:09:49.430Z,7.30
2017-08-31T07:12:24.003Z,7.33
2017-08-31T07:14:58.635Z,7.83
2017-08-31T07:17:33.210Z,7.80
2017-08-31T07:20:10.340Z,8.23
2017-08-31T07:22:45.172Z,8.27
2017-08-31T07:25:19.626Z,7.67
2017-08-31T07:27:54.053Z,8.20
2017-08-31T07:30:28.569Z,8.17
2017-08-31T07:33:02.993Z,7.60
2017-08-31T07:35:37.617Z,9.37
2017-08-31T07:38:12.053Z,7.57
2017-08-31T07:40:46.442Z,8.40
2017-08-31T07:43:20.889Z,7.80
2017-08-31T07:45:55.505Z,6.60
2017-08-31T07:48:29.902Z,7.20
2017-08-31T07:51:04.442Z,7.40
2017-08-31T07:53:38.865Z,6.90
2017-08-31T07:56:13.429Z,8.00
2017-08-31T07:58:47.854Z,8.90
2017-08-31T08:01:22.449Z,7.63
2017-08-31T08:03:56.874Z,8.80
2017-08-31T08:06:31.301Z,7.20
2017-08-31T08:09:05.038Z,7.17
2017-08-31T08:11:39.582Z,7.80
2017-08-31T08:14:14.246Z,6.80
2017-08-31T08:16:48.766Z,14.90
2017-08-31T08:19:23.341Z,9.77
2017-08-31T08:21:57.987Z,7.80
2017-08-31T08:24:32.558Z,7.60
2017-08-31T08:27:07.097Z,7.90
2017-08-31T08:29:41.570Z,7.87
2017-08-31T08:32:16.122Z,7.27
2017-08-31T08:34:50.677Z,8.53
2017-08-31T08:37:25.293Z,9.00
2017-08-31T08:39:59.758Z,7.83
2017-08-31T08:42:34.480Z,7.83
2017-08-31T08:45:12.541Z,8.37
2017-08-31T08:47:47.140Z,8.10
2017-08-31T08:50:21.473Z,8.53
2017-08-31T08:52:55.951Z,6.80
2017-08-31T08:55:30.393Z,10.30
2017-08-31T08:58:05.069Z,10.77
2017-08-31T09:00:39.686Z,9.60
2017-08-31T09:03:14.123Z,9.03
2017-08-31T09:05:48.586Z,9.50
2017-08-31T09:08:23.137Z,9.37
2017-08-31T09:10:57.698Z,9.10
2017-08-31T09:13:32.154Z,10.03
2017-08-31T09:16:06.734Z,8.33
2017-08-31T09:18:41.326Z,9.07
2017-08-31T09:21:15.889Z,7.17
2017-08-31T09:23:50.377Z,8.63
2017-08-31T09:26:25.001Z,8.47
2017-08-31T09:28:59.481Z,8.47
2017-08-31T09:31:34.463Z,7.80
2017-08-31T09:34:09.175Z,8.30
2017-08-31T09:36:43.771Z,8.93
2017-08-31T09:39:18.318Z,7.70
2017-08-31T09:41:52.842Z,8.10
2017-08-31T09:44:27.392Z,7.60
2017-08-31T09:47:01.891Z,8.00
2017-08-31T09:49:36.491Z,7.97
2017-08-31T09:52:11.078Z,8.87
2017-08-31T09:54:45.795Z,7.93
2017-08-31T09:57:20.722Z,8.20
2017-08-31T09:59:55.146Z,8.97
2017-08-31T10:02:29.725Z,8.07
2017-08-31T10:05:04.164Z,7.50
2017-08-31T10:07:44.198Z,8.30
2017-08-31T10:10:18.729Z,7.43
2017-08-31T10:12:53.177Z,8.00
2017-08-31T10:15:27.075Z,8.97
2017-08-31T10:18:01.757Z,8.00
2017-08-31T10:20:36.346Z,7.60
2017-08-31T10:23:10.962Z,8.10
2017-08-31T10:25:45.538Z,8.10
2017-08-31T10:28:20.079Z,9.50
2017-08-31T10:30:54.437Z,7.87
2017-08-31T10:33:28.681Z,8.00
2017-08-31T10:36:03.053Z,8.67
2017-08-31T10:38:37.538Z,7.60
2017-08-31T10:41:11.985Z,7.87
2017-08-31T10:43:46.534Z,8.53
2017-08-31T10:46:20.906Z,8.20
2017-08-31T10:48:55.381Z,7.60
2017-08-31T10:51:29.743Z,7.93
2017-08-31T10:54:04.061Z,8.27
2017-08-31T10:56:38.422Z,8.30
2017-08-31T10:59:12.842Z,9.03
2017-08-31T11:01:47.218Z,7.90
2017-08-31T11:04:21.523Z,9.17
2017-08-31T11:06:55.893Z,8.60
2017-08-31T11:09:30.334Z,9.10
2017-08-31T11:12:04.627Z,7.63
2017-08-31T11:14:39.109Z,8.60
2017-08-31T11:17:13.473Z,9.17
2017-08-31T11:19:47.903Z,8.67
2017-08-31T11:22:22.446Z,8.73
2017-08-31T11:24:57.694Z,11.33
2017-08-31T11:27:32.111Z,8.70
2017-08-31T11:30:11.144Z,8.40
2017-08-31T11:32:45.678Z,8.03
2017-08-31T11:35:20.650Z,9.50
2017-08-31T11:37:55.498Z,8.20
2017-08-31T11:40:30.058Z,9.30
2017-08-31T11:43:04.535Z,9.30
2017-08-31T11:45:39.905Z,8.63
2017-08-31T11:48:14.578Z,8.50
2017-08-31T11:50:49.017Z,8.60
2017-08-31T11:53:23.490Z,9.03
2017-08-31T11:55:58.017Z,7.50
2017-08-31T11:58:32.602Z,8.70
2017-08-31T12:01:07.201Z,8.50
2017-08-31T12:03:41.685Z,8.77
2017-08-31T12:06:16.194Z,8.13
2017-08-31T12:08:50.656Z,8.63
2017-08-31T12:11:25.193Z,8.00
2017-08-31T12:13:59.478Z,7.50
2017-08-31T12:16:34.098Z,8.13
2017-08-31T12:19:08.693Z,7.13
2017-08-31T12:21:43.074Z,6.70
2017-08-31T12:24:17.713Z,7.50
2017-08-31T12:29:57.170Z,10.43
2017-08-31T12:32:31.923Z,6.90
2017-08-31T12:35:14.162Z,7.30
2017-08-31T12:37:48.765Z,7.00
2017-08-31T12:40:23.275Z,7.17
2017-08-31T12:42:57.851Z,6.87
2017-08-31T12:45:32.479Z,6.50
2017-08-31T12:48:06.915Z,6.10
2017-08-31T12:50:41.585Z,6.40
2017-08-31T12:53:16.230Z,6.73
2017-08-31T12:55:50.797Z,6.37
2017-08-31T12:58:25.419Z,6.33
2017-08-31T13:00:59.942Z,6.97
2017-08-31T13:03:34.645Z,6.80
2017-08-31T13:06:09.270Z,6.87
2017-08-31T13:08:43.710Z,6.67
2017-08-31T13:11:18.269Z,6.50
2017-08-31T13:13:52.813Z,6.70
2017-08-31T13:16:27.453Z,6.27
2017-08-31T13:19:01.866Z,6.20
2017-08-31T13:21:36.418Z,6.17
2017-08-31T13:24:10.954Z,5.67
2017-08-31T13:26:45.795Z,6.33
2017-08-31T13:29:20.405Z,5.97
2017-08-31T13:31:54.947Z,6.10
2017-08-31T13:34:29.673Z,6.13
2017-08-31T13:37:04.281Z,6.33
2017-08-31T13:39:38.951Z,6.93
2017-08-31T13:42:13.262Z,6.63
2017-08-31T13:44:47.878Z,5.90
2017-08-31T13:47:22.462Z,6.53
2017-08-31T13:49:57.014Z,5.70
2017-08-31T13:52:31.616Z,7.00
2017-08-31T13:55:14.497Z,7.10
2017-08-31T13:57:49.106Z,6.90
2017-08-31T14:00:23.722Z,7.43
2017-08-31T14:02:58.309Z,6.70
2017-08-31T14:05:33.194Z,7.17
2017-08-31T14:08:07.634Z,5.23
2017-08-31T14:10:42.169Z,6.00
2017-08-31T14:13:16.721Z,6.67
2017-08-31T14:15:51.398Z,6.10
2017-08-31T14:18:25.830Z,6.80
2017-08-31T14:21:00.454Z,6.00
2017-08-31T14:23:35.053Z,6.67
2017-08-31T14:26:09.561Z,5.63
2017-08-31T14:28:44.034Z,7.27
2017-08-31T14:31:18.651Z,6.80
2017-08-31T14:33:53.169Z,6.53
2017-08-31T14:36:27.774Z,6.20
2017-08-31T14:39:02.217Z,7.20
2017-08-31T14:41:36.802Z,8.30
2017-08-31T14:44:11.451Z,7.20
2017-08-31T14:46:45.983Z,6.57
2017-08-31T14:49:20.638Z,6.73
2017-08-31T14:51:55.150Z,6.90
2017-08-31T14:54:29.595Z,6.53
2017-08-31T14:57:04.138Z,6.60
2017-08-31T14:59:38.675Z,6.60
2017-08-31T15:02:13.265Z,7.10
2017-08-31T15:04:47.846Z,9.17
2017-08-31T15:07:22.477Z,7.97
2017-08-31T15:09:57.010Z,6.97
2017-08-31T15:12:31.616Z,7.07
2017-08-31T15:15:10.930Z,7.20
2017-08-31T15:17:45.366Z,7.73
2017-08-31T15:20:19.974Z,8.50
2017-08-31T15:22:54.483Z,7.27
2017-08-31T15:25:34.485Z,9.03
2017-08-31T15:28:09.093Z,7.10
2017-08-31T15:30:43.654Z,7.03
2017-08-31T15:33:18.159Z,7.80
2017-08-31T15:35:52.892Z,7.37
2017-08-31T15:38:27.574Z,6.97
2017-08-31T15:41:02.161Z,7.00
2017-08-31T15:43:36.694Z,7.87
2017-08-31T15:46:11.269Z,7.67
2017-08-31T15:48:45.781Z,8.10
2017-08-31T15:51:20.366Z,8.90
2017-08-31T15:53:55.014Z,7.20
2017-08-31T15:56:29.629Z,8.20
2017-08-31T15:59:04.189Z,7.33
2017-08-31T16:01:38.608Z,8.30
2017-08-31T16:04:13.238Z,7.53
2017-08-31T16:06:47.893Z,7.40
2017-08-31T16:09:22.569Z,7.77
2017-08-31T16:11:57.121Z,7.83
2017-08-31T16:14:31.589Z,6.70
2017-08-31T16:17:06.929Z,7.67
2017-08-31T16:19:41.445Z,9.40
2017-08-31T16:22:15.982Z,8.20
2017-08-31T16:24:50.658Z,8.57
2017-08-31T16:27:25.205Z,7.37
2017-08-31T16:29:59.654Z,7.87
2017-08-31T16:32:34.253Z,8.47
2017-08-31T16:35:15.167Z,7.50
2017-08-31T16:37:49.694Z,7.60
2017-08-31T16:40:24.290Z,7.97
2017-08-31T16:42:58.926Z,7.37
2017-08-31T16:45:33.484Z,7.77
2017-08-31T16:48:08.066Z,8.00
2017-08-31T16:50:42.672Z,6.73
2017-08-31T16:53:17.265Z,8.27
2017-08-31T16:55:51.834Z,7.83
2017-08-31T16:58:26.302Z,8.70
2017-08-31T17:01:00.851Z,8.00
2017-08-31T17:03:35.322Z,8.57
2017-08-31T17:06:09.885Z,9.43
2017-08-31T17:08:44.550Z,8.47
2017-08-31T17:11:19.154Z,9.10
2017-08-31T17:13:53.677Z,8.47
2017-08-31T17:16:28.090Z,7.67
2017-08-31T17:19:02.602Z,8.00
2017-08-31T17:21:37.263Z,9.47
2017-08-31T17:24:11.878Z,8.80
2017-08-31T17:26:46.481Z,8.00
2017-08-31T17:29:21.117Z,8.63
2017-08-31T17:31:55.806Z,7.50
2017-08-31T17:34:30.229Z,7.80
2017-08-31T17:37:04.813Z,8.00
2017-08-31T17:39:39.392Z,8.83
2017-08-31T17:42:14.002Z,8.03
2017-08-31T17:44:48.578Z,8.70
2017-08-31T17:47:23.192Z,8.87
2017-08-31T17:49:58.041Z,8.90
2017-08-31T17:52:32.497Z,9.20
2017-08-31T17:55:13.769Z,9.33
2017-08-31T17:57:48.351Z,9.30
2017-08-31T18:00:22.918Z,9.50
2017-08-31T18:02:57.526Z,8.50
2017-08-31T18:05:48.534Z,10.13
2017-08-31T18:08:23.348Z,11.20
2017-08-31T18:10:57.881Z,10.10
2017-08-31T18:13:32.483Z,9.73
2017-08-31T18:16:06.997Z,9.60
2017-08-31T18:18:41.678Z,9.30
2017-08-31T18:21:16.258Z,9.97
2017-08-31T18:23:50.801Z,9.43
2017-08-31T18:26:25.357Z,8.80
2017-08-31T18:28:59.859Z,9.00
2017-08-31T18:31:34.474Z,10.10
2017-08-31T18:34:08.906Z,9.30
2017-08-31T18:36:43.513Z,8.57
2017-08-31T18:39:19.557Z,8.17
2017-08-31T18:41:54.346Z,10.23
2017-08-31T18:44:29.352Z,9.57
2017-08-31T18:47:03.955Z,9.77
2017-08-31T18:49:38.551Z,8.33
2017-08-31T18:52:13.162Z,8.80
2017-08-31T18:54:48.031Z,7.97
2017-08-31T18:57:22.693Z,8.70
2017-08-31T18:59:57.355Z,7.93
2017-08-31T19:02:31.933Z,8.50
2017-08-31T19:05:12.831Z,7.57
2017-08-31T19:07:47.418Z,8.30
2017-08-31T19:10:21.937Z,8.33
2017-08-31T19:12:56.590Z,7.50
2017-08-31T19:15:31.193Z,7.77
2017-08-31T19:18:05.750Z,8.30
2017-08-31T19:20:40.368Z,7.80
2017-08-31T19:23:14.795Z,8.60
2017-08-31T19:25:49.720Z,7.13
2017-08-31T19:28:24.358Z,6.83
2017-08-31T19:30:58.992Z,6.23
2017-08-31T19:33:33.811Z,6.97
2017-08-31T19:36:08.431Z,6.47
2017-08-31T19:38:43.022Z,6.60
2017-08-31T19:41:17.518Z,6.50
2017-08-31T19:43:51.999Z,6.50
2017-08-31T19:46:26.509Z,6.40
2017-08-31T19:49:00.981Z,7.43
2017-08-31T19:51:35.566Z,5.90
2017-08-31T19:54:10.066Z,5.30
2017-08-31T19:56:44.666Z,5.30
2017-08-31T19:59:19.320Z,5.73
2017-08-31T20:01:53.866Z,5.43
2017-08-31T20:04:28.401Z,5.50
2017-08-31T20:07:02.981Z,6.23
2017-08-31T20:09:37.465Z,6.10
2017-08-31T20:12:12.026Z,5.40
2017-08-31T20:14:46.678Z,5.00
2017-08-31T20:17:21.153Z,4.57
2017-08-31T20:19:55.805Z,4.70
2017-08-31T20:22:30.369Z,4.80
2017-08-31T20:25:10.523Z,4.37
2017-08-31T20:27:45.175Z,5.17
2017-08-31T20:30:19.730Z,4.37
2017-08-31T20:32:54.301Z,4.73
2017-08-31T20:35:28.841Z,5.17
2017-08-31T20:38:03.654Z,3.53
2017-08-31T20:40:38.398Z,3.60
2017-08-31T20:43:13.414Z,3.90
2017-08-31T20:45:48.049Z,4.00
2017-08-31T20:48:22.558Z,3.70
2017-08-31T20:50:57.231Z,4.53
2017-08-31T20:53:31.737Z,4.10
2017-08-31T20:56:06.320Z,4.37
2017-08-31T20:58:40.729Z,4.00
2017-08-31T21:01:15.305Z,3.30
2017-08-31T21:03:50.831Z,2.83
2017-08-31T21:06:25.662Z,3.80
2017-08-31T21:09:00.326Z,3.70
2017-08-31T21:11:35.017Z,2.97
2017-08-31T21:14:09.634Z,2.80
2017-08-31T21:16:44.191Z,3.37
2017-08-31T21:19:18.667Z,3.07
2017-08-31T21:21:53.217Z,2.50
2017-08-31T21:24:27.677Z,3.90
2017-08-31T21:27:02.214Z,2.30
2017-08-31T21:29:36.842Z,3.27
2017-08-31T21:32:11.427Z,2.73
2017-08-31T21:34:45.842Z,3.07
2017-08-31T21:37:20.398Z,3.20
2017-08-31T21:39:54.886Z,2.43
2017-08-31T21:42:29.490Z,3.07
2017-08-31T21:45:13.498Z,2.70
2017-08-31T21:47:47.970Z,2.93
2017-08-31T21:50:22.609Z,3.40
2017-08-31T21:52:57.125Z,2.57
2017-08-31T21:55:31.782Z,2.90
2017-08-31T21:58:06.390Z,2.10
2017-08-31T22:00:40.937Z,2.70
2017-08-31T22:03:15.558Z,2.30
2017-08-31T22:05:50.170Z,3.17
2017-08-31T22:08:24.762Z,2.83
2017-08-31T22:10:59.503Z,3.37
2017-08-31T22:13:34.058Z,3.40
2017-08-31T22:16:08.639Z,2.80
2017-08-31T22:18:43.243Z,2.70
2017-08-31T22:21:17.821Z,2.17
2017-08-31T22:23:52.530Z,3.67
2017-08-31T22:26:27.082Z,3.27
2017-08-31T22:29:01.650Z,3.30
2017-08-31T22:31:36.182Z,3.50
2017-08-31T22:34:10.761Z,2.83
2017-08-31T22:36:45.321Z,2.77
2017-08-31T22:39:19.882Z,3.03
2017-08-31T22:41:54.350Z,3.10
2017-08-31T22:44:29.175Z,2.90
2017-08-31T22:47:03.758Z,2.93
2017-08-31T22:49:38.005Z,5.63
2017-08-31T22:52:12.491Z,3.03
2017-08-31T22:54:49.385Z,3.17
2017-08-31T23:00:28.054Z,3.20
2017-08-31T23:03:02.629Z,3.67
2017-08-31T23:05:37.150Z,3.33
2017-08-31T23:08:11.638Z,3.60
2017-08-31T23:10:46.238Z,2.93
2017-08-31T23:13:20.821Z,3.20
2017-08-31T23:15:55.329Z,3.17
2017-08-31T23:18:29.934Z,2.90
2017-08-31T23:21:04.510Z,3.50
2017-08-31T23:23:39.058Z,3.27
2017-08-31T23:26:13.595Z,3.10
2017-08-31T23:28:48.260Z,3.10
2017-08-31T23:31:22.785Z,2.73
2017-08-31T23:33:57.513Z,2.63
2017-08-31T23:36:32.078Z,3.27
2017-08-31T23:39:06.638Z,2.67
2017-08-31T23:41:41.246Z,3.00
2017-08-31T23:44:15.805Z,2.97
2017-08-31T23:46:50.425Z,3.00
2017-08-31T23:49:24.853Z,2.70
2017-08-31T23:51:59.358Z,2.63
2017-08-31T23:54:33.918Z,2.50
2017-08-31T23:57:08.490Z,2.40
2017-08-31T23:59:43.134Z,2.07
